sensor_id;sensor_type;location;lat;lon;timestamp;P1;durP1;ratioP1;P2;durP2;ratioP2
74044;SDS011;62389;51.412;5.436;2023-01-05T00:01:24;20.35;;;3.60;;
74044;SDS011;62389;51.412;5.436;2023-01-05T00:03:49;16.02;;;3.05;;
74044;SDS011;62389;51.412;5.436;2023-01-05T00:06:15;9.85;;;2.20;;
74044;SDS011;62389;51.412;5.436;2023-01-05T00:08:41;17.50;;;3.72;;
74044;SDS011;62389;51.412;5.436;2023-01-05T00:11:11;18.40;;;3.03;;
74044;SDS011;62389;51.412;5.436;2023-01-05T00:13:56;21.00;;;4.38;;
74044;SDS011;62389;51.412;5.436;2023-01-05T00:16:40;17.90;;;3.72;;
74044;SDS011;62389;51.412;5.436;2023-01-05T00:19:24;19.95;;;3.42;;
74044;SDS011;62389;51.412;5.436;2023-01-05T00:24:55;18.60;;;3.65;;
74044;SDS011;62389;51.412;5.436;2023-01-05T00:27:37;15.60;;;2.90;;
74044;SDS011;62389;51.412;5.436;2023-01-05T00:30:04;18.77;;;3.53;;
74044;SDS011;62389;51.412;5.436;2023-01-05T00:32:30;23.50;;;4.38;;
74044;SDS011;62389;51.412;5.436;2023-01-05T00:34:58;17.23;;;3.30;;
74044;SDS011;62389;51.412;5.436;2023-01-05T00:37:26;28.73;;;3.20;;
74044;SDS011;62389;51.412;5.436;2023-01-05T00:39:55;21.58;;;2.92;;
74044;SDS011;62389;51.412;5.436;2023-01-05T00:42:20;11.68;;;3.10;;
74044;SDS011;62389;51.412;5.436;2023-01-05T00:44:46;16.52;;;3.22;;
74044;SDS011;62389;51.412;5.436;2023-01-05T00:47:12;20.27;;;4.40;;
74044;SDS011;62389;51.412;5.436;2023-01-05T00:49:37;16.25;;;3.45;;
74044;SDS011;62389;51.412;5.436;2023-01-05T00:52:03;17.65;;;3.03;;
74044;SDS011;62389;51.412;5.436;2023-01-05T00:54:29;14.57;;;3.20;;
74044;SDS011;62389;51.412;5.436;2023-01-05T00:56:55;21.10;;;3.35;;
74044;SDS011;62389;51.412;5.436;2023-01-05T00:59:20;15.65;;;2.90;;
74044;SDS011;62389;51.412;5.436;2023-01-05T01:01:46;13.70;;;2.95;;
74044;SDS011;62389;51.412;5.436;2023-01-05T01:04:13;20.92;;;3.67;;
74044;SDS011;62389;51.412;5.436;2023-01-05T01:06:39;22.40;;;4.30;;
74044;SDS011;62389;51.412;5.436;2023-01-05T01:09:04;17.13;;;3.40;;
74044;SDS011;62389;51.412;5.436;2023-01-05T01:11:29;12.30;;;3.22;;
74044;SDS011;62389;51.412;5.436;2023-01-05T01:13:55;17.58;;;3.58;;
74044;SDS011;62389;51.412;5.436;2023-01-05T01:16:20;15.32;;;3.92;;
74044;SDS011;62389;51.412;5.436;2023-01-05T01:18:46;21.63;;;3.47;;
74044;SDS011;62389;51.412;5.436;2023-01-05T01:21:11;16.17;;;3.17;;
74044;SDS011;62389;51.412;5.436;2023-01-05T01:23:37;20.02;;;4.07;;
74044;SDS011;62389;51.412;5.436;2023-01-05T01:26:03;18.75;;;3.30;;
74044;SDS011;62389;51.412;5.436;2023-01-05T01:28:32;15.45;;;3.45;;
74044;SDS011;62389;51.412;5.436;2023-01-05T01:30:58;17.48;;;3.63;;
74044;SDS011;62389;51.412;5.436;2023-01-05T01:33:24;15.18;;;2.72;;
74044;SDS011;62389;51.412;5.436;2023-01-05T01:35:50;20.88;;;4.93;;
74044;SDS011;62389;51.412;5.436;2023-01-05T01:38:15;19.20;;;3.92;;
74044;SDS011;62389;51.412;5.436;2023-01-05T01:40:41;16.45;;;2.95;;
74044;SDS011;62389;51.412;5.436;2023-01-05T01:45:40;13.27;;;3.25;;
74044;SDS011;62389;51.412;5.436;2023-01-05T01:48:06;15.80;;;3.63;;
74044;SDS011;62389;51.412;5.436;2023-01-05T01:50:42;23.15;;;3.70;;
74044;SDS011;62389;51.412;5.436;2023-01-05T01:53:13;22.08;;;4.22;;
74044;SDS011;62389;51.412;5.436;2023-01-05T01:55:47;19.77;;;3.28;;
74044;SDS011;62389;51.412;5.436;2023-01-05T01:58:15;16.60;;;2.92;;
74044;SDS011;62389;51.412;5.436;2023-01-05T02:00:42;12.68;;;2.85;;
74044;SDS011;62389;51.412;5.436;2023-01-05T02:03:09;12.45;;;3.20;;
74044;SDS011;62389;51.412;5.436;2023-01-05T02:05:34;25.65;;;3.47;;
74044;SDS011;62389;51.412;5.436;2023-01-05T02:08:02;17.17;;;3.42;;
74044;SDS011;62389;51.412;5.436;2023-01-05T02:16:00;19.98;;;3.47;;
74044;SDS011;62389;51.412;5.436;2023-01-05T02:21:23;16.23;;;4.03;;
74044;SDS011;62389;51.412;5.436;2023-01-05T02:27:14;18.45;;;3.60;;
74044;SDS011;62389;51.412;5.436;2023-01-05T02:35:22;19.15;;;3.20;;
74044;SDS011;62389;51.412;5.436;2023-01-05T02:41:18;20.38;;;3.35;;
74044;SDS011;62389;51.412;5.436;2023-01-05T02:43:50;17.63;;;3.47;;
74044;SDS011;62389;51.412;5.436;2023-01-05T02:46:15;19.27;;;3.47;;
74044;SDS011;62389;51.412;5.436;2023-01-05T02:48:40;23.30;;;3.10;;
74044;SDS011;62389;51.412;5.436;2023-01-05T02:51:12;15.35;;;3.17;;
74044;SDS011;62389;51.412;5.436;2023-01-05T02:53:43;15.35;;;3.58;;
74044;SDS011;62389;51.412;5.436;2023-01-05T02:56:25;26.70;;;3.85;;
74044;SDS011;62389;51.412;5.436;2023-01-05T02:58:59;18.38;;;3.33;;
74044;SDS011;62389;51.412;5.436;2023-01-05T03:01:42;19.27;;;3.88;;
74044;SDS011;62389;51.412;5.436;2023-01-05T03:04:22;18.67;;;4.40;;
74044;SDS011;62389;51.412;5.436;2023-01-05T03:06:55;22.90;;;4.63;;
74044;SDS011;62389;51.412;5.436;2023-01-05T03:09:27;26.42;;;4.60;;
74044;SDS011;62389;51.412;5.436;2023-01-05T03:17:40;17.40;;;3.13;;
74044;SDS011;62389;51.412;5.436;2023-01-05T03:20:10;19.95;;;3.53;;
74044;SDS011;62389;51.412;5.436;2023-01-05T03:22:40;16.67;;;3.13;;
74044;SDS011;62389;51.412;5.436;2023-01-05T03:25:27;18.13;;;2.75;;
74044;SDS011;62389;51.412;5.436;2023-01-05T03:28:13;20.60;;;3.35;;
74044;SDS011;62389;51.412;5.436;2023-01-05T03:36:43;18.00;;;3.72;;
74044;SDS011;62389;51.412;5.436;2023-01-05T03:39:24;13.98;;;2.95;;
74044;SDS011;62389;51.412;5.436;2023-01-05T03:41:51;23.95;;;4.90;;
74044;SDS011;62389;51.412;5.436;2023-01-05T03:44:18;14.25;;;3.47;;
74044;SDS011;62389;51.412;5.436;2023-01-05T03:46:44;19.08;;;3.78;;
74044;SDS011;62389;51.412;5.436;2023-01-05T03:49:09;16.02;;;3.47;;
74044;SDS011;62389;51.412;5.436;2023-01-05T03:51:35;17.02;;;2.97;;
74044;SDS011;62389;51.412;5.436;2023-01-05T03:54:00;16.40;;;3.47;;
74044;SDS011;62389;51.412;5.436;2023-01-05T03:56:26;18.13;;;3.30;;
74044;SDS011;62389;51.412;5.436;2023-01-05T03:58:51;21.80;;;3.60;;
74044;SDS011;62389;51.412;5.436;2023-01-05T04:01:16;16.27;;;3.10;;
74044;SDS011;62389;51.412;5.436;2023-01-05T04:03:42;17.08;;;3.67;;
74044;SDS011;62389;51.412;5.436;2023-01-05T04:06:07;14.10;;;3.45;;
74044;SDS011;62389;51.412;5.436;2023-01-05T04:08:32;15.82;;;4.18;;
74044;SDS011;62389;51.412;5.436;2023-01-05T04:11:09;29.58;;;4.35;;
74044;SDS011;62389;51.412;5.436;2023-01-05T04:13:38;18.45;;;2.63;;
74044;SDS011;62389;51.412;5.436;2023-01-05T04:16:03;14.10;;;2.78;;
74044;SDS011;62389;51.412;5.436;2023-01-05T04:18:29;19.70;;;3.67;;
74044;SDS011;62389;51.412;5.436;2023-01-05T04:20:55;22.27;;;3.75;;
74044;SDS011;62389;51.412;5.436;2023-01-05T04:23:20;15.35;;;3.10;;
74044;SDS011;62389;51.412;5.436;2023-01-05T04:25:46;20.13;;;3.47;;
74044;SDS011;62389;51.412;5.436;2023-01-05T04:28:11;15.63;;;4.10;;
74044;SDS011;62389;51.412;5.436;2023-01-05T04:30:37;21.40;;;3.78;;
74044;SDS011;62389;51.412;5.436;2023-01-05T04:33:03;22.63;;;4.13;;
74044;SDS011;62389;51.412;5.436;2023-01-05T04:35:28;20.20;;;4.40;;
74044;SDS011;62389;51.412;5.436;2023-01-05T04:37:53;23.35;;;3.38;;
74044;SDS011;62389;51.412;5.436;2023-01-05T04:40:19;15.55;;;3.10;;
74044;SDS011;62389;51.412;5.436;2023-01-05T04:42:45;23.83;;;3.33;;
74044;SDS011;62389;51.412;5.436;2023-01-05T04:45:10;15.95;;;2.72;;
74044;SDS011;62389;51.412;5.436;2023-01-05T04:47:36;14.35;;;2.53;;
74044;SDS011;62389;51.412;5.436;2023-01-05T04:50:02;21.08;;;4.20;;
74044;SDS011;62389;51.412;5.436;2023-01-05T04:52:27;19.73;;;4.57;;
74044;SDS011;62389;51.412;5.436;2023-01-05T04:54:53;17.67;;;4.35;;
74044;SDS011;62389;51.412;5.436;2023-01-05T04:57:18;13.00;;;3.15;;
74044;SDS011;62389;51.412;5.436;2023-01-05T04:59:43;22.02;;;4.53;;
74044;SDS011;62389;51.412;5.436;2023-01-05T05:02:09;21.38;;;3.50;;
74044;SDS011;62389;51.412;5.436;2023-01-05T05:04:35;24.25;;;3.00;;
74044;SDS011;62389;51.412;5.436;2023-01-05T05:07:00;18.35;;;3.67;;
74044;SDS011;62389;51.412;5.436;2023-01-05T05:09:26;22.95;;;3.83;;
74044;SDS011;62389;51.412;5.436;2023-01-05T05:11:51;23.08;;;3.95;;
74044;SDS011;62389;51.412;5.436;2023-01-05T05:14:17;24.38;;;4.10;;
74044;SDS011;62389;51.412;5.436;2023-01-05T05:16:42;16.52;;;3.10;;
74044;SDS011;62389;51.412;5.436;2023-01-05T05:19:08;15.77;;;3.10;;
74044;SDS011;62389;51.412;5.436;2023-01-05T05:21:34;15.05;;;3.45;;
74044;SDS011;62389;51.412;5.436;2023-01-05T05:23:59;14.52;;;3.28;;
74044;SDS011;62389;51.412;5.436;2023-01-05T05:26:25;14.13;;;3.10;;
74044;SDS011;62389;51.412;5.436;2023-01-05T05:28:50;19.60;;;3.88;;
74044;SDS011;62389;51.412;5.436;2023-01-05T05:31:15;21.80;;;3.85;;
74044;SDS011;62389;51.412;5.436;2023-01-05T05:33:41;18.48;;;3.95;;
74044;SDS011;62389;51.412;5.436;2023-01-05T05:36:06;15.23;;;3.30;;
74044;SDS011;62389;51.412;5.436;2023-01-05T05:38:32;27.23;;;4.22;;
74044;SDS011;62389;51.412;5.436;2023-01-05T05:40:57;20.17;;;3.50;;
74044;SDS011;62389;51.412;5.436;2023-01-05T05:43:23;19.38;;;3.38;;
74044;SDS011;62389;51.412;5.436;2023-01-05T05:45:48;28.27;;;4.53;;
74044;SDS011;62389;51.412;5.436;2023-01-05T05:48:13;17.95;;;3.47;;
74044;SDS011;62389;51.412;5.436;2023-01-05T05:50:39;19.55;;;3.38;;
74044;SDS011;62389;51.412;5.436;2023-01-05T05:53:04;24.02;;;4.50;;
74044;SDS011;62389;51.412;5.436;2023-01-05T05:55:30;22.02;;;3.42;;
74044;SDS011;62389;51.412;5.436;2023-01-05T05:57:55;18.25;;;3.17;;
74044;SDS011;62389;51.412;5.436;2023-01-05T06:00:21;19.77;;;4.38;;
74044;SDS011;62389;51.412;5.436;2023-01-05T06:02:46;21.40;;;3.90;;
74044;SDS011;62389;51.412;5.436;2023-01-05T06:05:11;18.65;;;3.03;;
74044;SDS011;62389;51.412;5.436;2023-01-05T06:07:37;18.98;;;3.33;;
74044;SDS011;62389;51.412;5.436;2023-01-05T06:10:02;21.55;;;3.50;;
74044;SDS011;62389;51.412;5.436;2023-01-05T06:12:28;19.00;;;3.33;;
74044;SDS011;62389;51.412;5.436;2023-01-05T06:14:54;21.35;;;3.47;;
74044;SDS011;62389;51.412;5.436;2023-01-05T06:17:19;15.10;;;3.38;;
74044;SDS011;62389;51.412;5.436;2023-01-05T06:19:44;18.30;;;3.95;;
74044;SDS011;62389;51.412;5.436;2023-01-05T06:22:10;22.27;;;3.88;;
74044;SDS011;62389;51.412;5.436;2023-01-05T06:24:35;15.70;;;3.22;;
74044;SDS011;62389;51.412;5.436;2023-01-05T06:27:00;27.10;;;3.97;;
74044;SDS011;62389;51.412;5.436;2023-01-05T06:29:26;19.77;;;3.95;;
74044;SDS011;62389;51.412;5.436;2023-01-05T06:31:51;19.73;;;4.50;;
74044;SDS011;62389;51.412;5.436;2023-01-05T06:34:16;15.45;;;3.40;;
74044;SDS011;62389;51.412;5.436;2023-01-05T06:36:42;23.65;;;4.70;;
74044;SDS011;62389;51.412;5.436;2023-01-05T06:39:07;19.05;;;4.18;;
74044;SDS011;62389;51.412;5.436;2023-01-05T06:41:32;18.98;;;3.95;;
74044;SDS011;62389;51.412;5.436;2023-01-05T06:43:59;22.10;;;3.40;;
74044;SDS011;62389;51.412;5.436;2023-01-05T06:46:25;21.15;;;3.50;;
74044;SDS011;62389;51.412;5.436;2023-01-05T06:48:50;15.95;;;3.75;;
74044;SDS011;62389;51.412;5.436;2023-01-05T06:51:15;15.85;;;3.75;;
74044;SDS011;62389;51.412;5.436;2023-01-05T06:53:41;18.65;;;3.67;;
74044;SDS011;62389;51.412;5.436;2023-01-05T06:56:06;16.38;;;3.55;;
74044;SDS011;62389;51.412;5.436;2023-01-05T06:58:31;24.77;;;4.35;;
74044;SDS011;62389;51.412;5.436;2023-01-05T07:00:57;24.15;;;4.60;;
74044;SDS011;62389;51.412;5.436;2023-01-05T07:03:23;20.75;;;4.35;;
74044;SDS011;62389;51.412;5.436;2023-01-05T07:05:48;21.40;;;4.10;;
74044;SDS011;62389;51.412;5.436;2023-01-05T07:08:14;20.30;;;4.88;;
74044;SDS011;62389;51.412;5.436;2023-01-05T07:10:39;16.55;;;3.88;;
74044;SDS011;62389;51.412;5.436;2023-01-05T07:13:05;27.23;;;5.40;;
74044;SDS011;62389;51.412;5.436;2023-01-05T07:15:30;24.83;;;4.78;;
74044;SDS011;62389;51.412;5.436;2023-01-05T07:17:55;17.35;;;4.15;;
74044;SDS011;62389;51.412;5.436;2023-01-05T07:20:21;29.38;;;4.70;;
74044;SDS011;62389;51.412;5.436;2023-01-05T07:22:46;21.95;;;3.47;;
74044;SDS011;62389;51.412;5.436;2023-01-05T07:25:11;23.67;;;4.05;;
74044;SDS011;62389;51.412;5.436;2023-01-05T07:27:37;26.75;;;5.25;;
74044;SDS011;62389;51.412;5.436;2023-01-05T07:30:02;21.00;;;3.58;;
74044;SDS011;62389;51.412;5.436;2023-01-05T07:32:28;26.65;;;4.40;;
74044;SDS011;62389;51.412;5.436;2023-01-05T07:34:53;17.60;;;3.92;;
74044;SDS011;62389;51.412;5.436;2023-01-05T07:37:19;21.77;;;4.55;;
74044;SDS011;62389;51.412;5.436;2023-01-05T07:39:44;21.80;;;3.65;;
74044;SDS011;62389;51.412;5.436;2023-01-05T07:42:09;23.48;;;5.07;;
74044;SDS011;62389;51.412;5.436;2023-01-05T07:44:35;19.27;;;4.47;;
74044;SDS011;62389;51.412;5.436;2023-01-05T07:47:01;22.63;;;3.97;;
74044;SDS011;62389;51.412;5.436;2023-01-05T07:49:26;26.70;;;4.70;;
74044;SDS011;62389;51.412;5.436;2023-01-05T07:51:53;17.45;;;4.10;;
74044;SDS011;62389;51.412;5.436;2023-01-05T07:54:18;23.63;;;4.75;;
74044;SDS011;62389;51.412;5.436;2023-01-05T07:56:45;28.55;;;4.80;;
74044;SDS011;62389;51.412;5.436;2023-01-05T07:59:11;22.90;;;5.07;;
74044;SDS011;62389;51.412;5.436;2023-01-05T08:01:36;23.77;;;4.95;;
74044;SDS011;62389;51.412;5.436;2023-01-05T08:04:01;18.70;;;4.28;;
74044;SDS011;62389;51.412;5.436;2023-01-05T08:06:27;18.88;;;4.30;;
74044;SDS011;62389;51.412;5.436;2023-01-05T08:08:52;24.48;;;4.78;;
74044;SDS011;62389;51.412;5.436;2023-01-05T08:11:20;30.77;;;4.65;;
74044;SDS011;62389;51.412;5.436;2023-01-05T08:13:45;28.30;;;3.83;;
74044;SDS011;62389;51.412;5.436;2023-01-05T08:16:24;26.23;;;4.32;;
74044;SDS011;62389;51.412;5.436;2023-01-05T08:18:50;27.60;;;4.30;;
74044;SDS011;62389;51.412;5.436;2023-01-05T08:21:16;21.75;;;3.83;;
74044;SDS011;62389;51.412;5.436;2023-01-05T08:23:41;19.13;;;4.07;;
74044;SDS011;62389;51.412;5.436;2023-01-05T08:26:08;17.20;;;3.65;;
74044;SDS011;62389;51.412;5.436;2023-01-05T08:28:37;27.95;;;5.95;;
74044;SDS011;62389;51.412;5.436;2023-01-05T08:31:03;19.75;;;4.63;;
74044;SDS011;62389;51.412;5.436;2023-01-05T08:33:31;16.63;;;4.15;;
74044;SDS011;62389;51.412;5.436;2023-01-05T08:35:56;23.30;;;4.35;;
74044;SDS011;62389;51.412;5.436;2023-01-05T08:38:22;25.63;;;4.20;;
74044;SDS011;62389;51.412;5.436;2023-01-05T08:40:47;20.90;;;3.97;;
74044;SDS011;62389;51.412;5.436;2023-01-05T08:43:13;29.15;;;4.78;;
74044;SDS011;62389;51.412;5.436;2023-01-05T08:45:38;25.52;;;4.30;;
74044;SDS011;62389;51.412;5.436;2023-01-05T08:48:04;24.70;;;4.50;;
74044;SDS011;62389;51.412;5.436;2023-01-05T08:50:29;20.58;;;4.10;;
74044;SDS011;62389;51.412;5.436;2023-01-05T08:52:55;21.67;;;4.70;;
74044;SDS011;62389;51.412;5.436;2023-01-05T08:55:21;22.83;;;5.45;;
74044;SDS011;62389;51.412;5.436;2023-01-05T08:57:46;21.73;;;3.47;;
74044;SDS011;62389;51.412;5.436;2023-01-05T09:00:12;21.58;;;5.15;;
74044;SDS011;62389;51.412;5.436;2023-01-05T09:02:38;23.17;;;3.97;;
74044;SDS011;62389;51.412;5.436;2023-01-05T09:05:03;19.83;;;4.25;;
74044;SDS011;62389;51.412;5.436;2023-01-05T09:07:29;22.90;;;3.90;;
74044;SDS011;62389;51.412;5.436;2023-01-05T09:09:54;18.17;;;3.90;;
74044;SDS011;62389;51.412;5.436;2023-01-05T09:12:20;18.58;;;4.00;;
74044;SDS011;62389;51.412;5.436;2023-01-05T09:14:45;29.20;;;5.95;;
74044;SDS011;62389;51.412;5.436;2023-01-05T09:17:10;22.80;;;4.78;;
74044;SDS011;62389;51.412;5.436;2023-01-05T09:19:36;23.05;;;4.75;;
74044;SDS011;62389;51.412;5.436;2023-01-05T09:22:01;21.98;;;4.07;;
74044;SDS011;62389;51.412;5.436;2023-01-05T09:24:27;23.20;;;4.85;;
74044;SDS011;62389;51.412;5.436;2023-01-05T09:26:52;32.15;;;5.43;;
74044;SDS011;62389;51.412;5.436;2023-01-05T09:29:18;20.00;;;3.85;;
74044;SDS011;62389;51.412;5.436;2023-01-05T09:31:43;20.48;;;4.55;;
74044;SDS011;62389;51.412;5.436;2023-01-05T09:34:09;23.45;;;4.03;;
74044;SDS011;62389;51.412;5.436;2023-01-05T09:36:35;27.33;;;5.25;;
74044;SDS011;62389;51.412;5.436;2023-01-05T09:39:01;25.48;;;3.92;;
74044;SDS011;62389;51.412;5.436;2023-01-05T09:44:06;26.65;;;4.57;;
74044;SDS011;62389;51.412;5.436;2023-01-05T09:46:37;20.02;;;3.63;;
74044;SDS011;62389;51.412;5.436;2023-01-05T09:49:06;23.88;;;3.90;;
74044;SDS011;62389;51.412;5.436;2023-01-05T09:51:37;22.92;;;5.13;;
74044;SDS011;62389;51.412;5.436;2023-01-05T09:54:03;21.63;;;5.07;;
74044;SDS011;62389;51.412;5.436;2023-01-05T09:56:29;21.85;;;3.78;;
74044;SDS011;62389;51.412;5.436;2023-01-05T09:59:09;23.98;;;4.25;;
74044;SDS011;62389;51.412;5.436;2023-01-05T10:01:36;18.50;;;5.15;;
74044;SDS011;62389;51.412;5.436;2023-01-05T10:04:04;22.70;;;4.00;;
74044;SDS011;62389;51.412;5.436;2023-01-05T10:06:36;21.85;;;4.50;;
74044;SDS011;62389;51.412;5.436;2023-01-05T10:09:06;23.35;;;3.78;;
74044;SDS011;62389;51.412;5.436;2023-01-05T10:11:35;22.50;;;4.10;;
74044;SDS011;62389;51.412;5.436;2023-01-05T10:17:18;25.50;;;4.65;;
74044;SDS011;62389;51.412;5.436;2023-01-05T10:19:45;21.33;;;4.20;;
74044;SDS011;62389;51.412;5.436;2023-01-05T10:31:07;26.33;;;4.10;;
74044;SDS011;62389;51.412;5.436;2023-01-05T10:34:06;21.85;;;4.40;;
74044;SDS011;62389;51.412;5.436;2023-01-05T10:42:06;26.75;;;5.68;;
74044;SDS011;62389;51.412;5.436;2023-01-05T10:44:47;26.42;;;6.40;;
74044;SDS011;62389;51.412;5.436;2023-01-05T10:47:16;27.70;;;5.55;;
74044;SDS011;62389;51.412;5.436;2023-01-05T10:49:43;24.02;;;5.00;;
74044;SDS011;62389;51.412;5.436;2023-01-05T10:52:11;24.25;;;5.38;;
74044;SDS011;62389;51.412;5.436;2023-01-05T10:54:43;18.70;;;5.07;;
74044;SDS011;62389;51.412;5.436;2023-01-05T10:59:59;23.17;;;5.45;;
74044;SDS011;62389;51.412;5.436;2023-01-05T11:03:21;29.38;;;6.45;;
74044;SDS011;62389;51.412;5.436;2023-01-05T11:05:34;19.73;;;5.05;;
74044;SDS011;62389;51.412;5.436;2023-01-05T11:08:05;25.38;;;5.68;;
74044;SDS011;62389;51.412;5.436;2023-01-05T11:10:39;24.55;;;7.15;;
74044;SDS011;62389;51.412;5.436;2023-01-05T11:15:41;22.45;;;5.93;;
74044;SDS011;62389;51.412;5.436;2023-01-05T11:18:21;30.77;;;6.15;;
74044;SDS011;62389;51.412;5.436;2023-01-05T11:23:36;26.63;;;5.57;;
74044;SDS011;62389;51.412;5.436;2023-01-05T11:26:10;24.90;;;6.80;;
74044;SDS011;62389;51.412;5.436;2023-01-05T11:29:03;26.58;;;6.70;;
74044;SDS011;62389;51.412;5.436;2023-01-05T11:34:06;22.25;;;6.13;;
74044;SDS011;62389;51.412;5.436;2023-01-05T11:40:04;30.83;;;6.32;;
74044;SDS011;62389;51.412;5.436;2023-01-05T11:42:27;22.27;;;5.80;;
74044;SDS011;62389;51.412;5.436;2023-01-05T11:47:39;27.98;;;5.70;;
74044;SDS011;62389;51.412;5.436;2023-01-05T11:52:37;23.00;;;6.32;;
74044;SDS011;62389;51.412;5.436;2023-01-05T11:57:50;25.88;;;7.10;;
74044;SDS011;62389;51.412;5.436;2023-01-05T12:03:49;26.58;;;6.88;;
74044;SDS011;62389;51.412;5.436;2023-01-05T12:09:27;24.33;;;6.55;;
74044;SDS011;62389;51.412;5.436;2023-01-05T12:17:32;21.90;;;5.65;;
74044;SDS011;62389;51.412;5.436;2023-01-05T12:25:44;18.25;;;6.05;;
74044;SDS011;62389;51.412;5.436;2023-01-05T12:28:50;26.58;;;5.95;;
74044;SDS011;62389;51.412;5.436;2023-01-05T12:39:05;18.48;;;5.72;;
74044;SDS011;62389;51.412;5.436;2023-01-05T12:44:46;21.92;;;6.22;;
74044;SDS011;62389;51.412;5.436;2023-01-05T12:53:00;19.83;;;6.95;;
74044;SDS011;62389;51.412;5.436;2023-01-05T12:55:32;22.17;;;6.57;;
74044;SDS011;62389;51.412;5.436;2023-01-05T12:58:13;27.50;;;7.10;;
74044;SDS011;62389;51.412;5.436;2023-01-05T13:00:46;27.17;;;7.80;;
74044;SDS011;62389;51.412;5.436;2023-01-05T13:06:01;27.55;;;6.88;;
74044;SDS011;62389;51.412;5.436;2023-01-05T13:08:36;22.98;;;7.03;;
74044;SDS011;62389;51.412;5.436;2023-01-05T13:11:15;22.30;;;7.28;;
74044;SDS011;62389;51.412;5.436;2023-01-05T13:13:47;28.73;;;8.32;;
74044;SDS011;62389;51.412;5.436;2023-01-05T13:16:24;23.80;;;7.63;;
74044;SDS011;62389;51.412;5.436;2023-01-05T13:21:47;23.00;;;7.15;;
74044;SDS011;62389;51.412;5.436;2023-01-05T13:24:34;27.30;;;6.78;;
74044;SDS011;62389;51.412;5.436;2023-01-05T13:27:08;24.40;;;7.85;;
74044;SDS011;62389;51.412;5.436;2023-01-05T13:29:38;22.52;;;7.75;;
74044;SDS011;62389;51.412;5.436;2023-01-05T13:32:16;31.23;;;6.65;;
74044;SDS011;62389;51.412;5.436;2023-01-05T13:34:49;20.23;;;6.60;;
74044;SDS011;62389;51.412;5.436;2023-01-05T13:37:21;25.35;;;6.95;;
74044;SDS011;62389;51.412;5.436;2023-01-05T13:45:45;18.52;;;5.65;;
74044;SDS011;62389;51.412;5.436;2023-01-05T13:51:00;19.73;;;5.38;;
74044;SDS011;62389;51.412;5.436;2023-01-05T13:53:29;23.40;;;6.57;;
74044;SDS011;62389;51.412;5.436;2023-01-05T13:56:01;24.88;;;5.53;;
74044;SDS011;62389;51.412;5.436;2023-01-05T14:01:08;26.65;;;5.32;;
74044;SDS011;62389;51.412;5.436;2023-01-05T14:03:38;28.42;;;5.70;;
74044;SDS011;62389;51.412;5.436;2023-01-05T14:06:18;18.10;;;4.50;;
74044;SDS011;62389;51.412;5.436;2023-01-05T14:08:50;30.55;;;5.15;;
74044;SDS011;62389;51.412;5.436;2023-01-05T14:11:20;21.38;;;5.30;;
74044;SDS011;62389;51.412;5.436;2023-01-05T14:13:48;18.17;;;3.72;;
74044;SDS011;62389;51.412;5.436;2023-01-05T14:32:09;20.90;;;4.07;;
74044;SDS011;62389;51.412;5.436;2023-01-05T14:34:43;19.90;;;3.58;;
74044;SDS011;62389;51.412;5.436;2023-01-05T14:37:22;18.58;;;3.75;;
74044;SDS011;62389;51.412;5.436;2023-01-05T14:39:49;21.98;;;3.95;;
74044;SDS011;62389;51.412;5.436;2023-01-05T14:47:49;25.45;;;4.63;;
74044;SDS011;62389;51.412;5.436;2023-01-05T14:52:59;22.98;;;4.07;;
74044;SDS011;62389;51.412;5.436;2023-01-05T14:55:29;18.45;;;3.72;;
74044;SDS011;62389;51.412;5.436;2023-01-05T14:58:03;15.57;;;3.28;;
74044;SDS011;62389;51.412;5.436;2023-01-05T15:00:39;20.48;;;4.18;;
74044;SDS011;62389;51.412;5.436;2023-01-05T15:05:57;22.02;;;4.93;;
74044;SDS011;62389;51.412;5.436;2023-01-05T15:08:52;22.15;;;4.28;;
74044;SDS011;62389;51.412;5.436;2023-01-05T15:27:35;17.08;;;3.42;;
74044;SDS011;62389;51.412;5.436;2023-01-05T15:30:38;22.73;;;4.72;;
74044;SDS011;62389;51.412;5.436;2023-01-05T15:33:23;13.05;;;3.35;;
74044;SDS011;62389;51.412;5.436;2023-01-05T15:36:02;22.38;;;4.05;;
74044;SDS011;62389;51.412;5.436;2023-01-05T15:38:30;21.50;;;4.00;;
74044;SDS011;62389;51.412;5.436;2023-01-05T15:41:00;26.48;;;5.15;;
74044;SDS011;62389;51.412;5.436;2023-01-05T15:43:31;19.27;;;3.90;;
74044;SDS011;62389;51.412;5.436;2023-01-05T15:45:57;23.85;;;4.53;;
74044;SDS011;62389;51.412;5.436;2023-01-05T15:48:25;24.02;;;4.95;;
74044;SDS011;62389;51.412;5.436;2023-01-05T15:50:55;23.55;;;4.25;;
74044;SDS011;62389;51.412;5.436;2023-01-05T15:53:27;25.85;;;4.93;;
74044;SDS011;62389;51.412;5.436;2023-01-05T15:55:59;22.77;;;5.07;;
74044;SDS011;62389;51.412;5.436;2023-01-05T15:58:26;23.80;;;5.07;;
74044;SDS011;62389;51.412;5.436;2023-01-05T16:01:02;27.77;;;5.80;;
74044;SDS011;62389;51.412;5.436;2023-01-05T16:03:30;20.90;;;5.55;;
74044;SDS011;62389;51.412;5.436;2023-01-05T16:05:58;26.42;;;6.03;;
74044;SDS011;62389;51.412;5.436;2023-01-05T16:08:26;20.15;;;6.10;;
74044;SDS011;62389;51.412;5.436;2023-01-05T16:10:55;26.05;;;5.82;;
74044;SDS011;62389;51.412;5.436;2023-01-05T16:16:08;24.08;;;4.68;;
74044;SDS011;62389;51.412;5.436;2023-01-05T16:18:41;21.17;;;4.35;;
74044;SDS011;62389;51.412;5.436;2023-01-05T16:23:51;18.38;;;4.80;;
74044;SDS011;62389;51.412;5.436;2023-01-05T16:26:23;23.90;;;4.28;;
74044;SDS011;62389;51.412;5.436;2023-01-05T16:28:49;20.35;;;5.07;;
74044;SDS011;62389;51.412;5.436;2023-01-05T16:31:21;21.08;;;5.53;;
74044;SDS011;62389;51.412;5.436;2023-01-05T16:34:04;19.27;;;5.22;;
74044;SDS011;62389;51.412;5.436;2023-01-05T16:36:39;21.88;;;5.20;;
74044;SDS011;62389;51.412;5.436;2023-01-05T16:39:11;16.83;;;4.80;;
74044;SDS011;62389;51.412;5.436;2023-01-05T16:41:47;19.55;;;5.80;;
74044;SDS011;62389;51.412;5.436;2023-01-05T16:44:31;27.15;;;6.88;;
74044;SDS011;62389;51.412;5.436;2023-01-05T16:47:06;17.95;;;5.65;;
74044;SDS011;62389;51.412;5.436;2023-01-05T16:49:36;22.88;;;5.65;;
74044;SDS011;62389;51.412;5.436;2023-01-05T16:52:05;15.13;;;5.32;;
74044;SDS011;62389;51.412;5.436;2023-01-05T16:54:34;24.17;;;5.90;;
74044;SDS011;62389;51.412;5.436;2023-01-05T16:59:53;21.52;;;6.53;;
74044;SDS011;62389;51.412;5.436;2023-01-05T17:07:40;21.10;;;5.95;;
74044;SDS011;62389;51.412;5.436;2023-01-05T17:12:39;16.42;;;5.47;;
74044;SDS011;62389;51.412;5.436;2023-01-05T17:15:05;24.52;;;6.85;;
74044;SDS011;62389;51.412;5.436;2023-01-05T17:17:31;19.65;;;6.70;;
74044;SDS011;62389;51.412;5.436;2023-01-05T17:19:56;20.50;;;6.70;;
74044;SDS011;62389;51.412;5.436;2023-01-05T17:22:21;19.53;;;6.67;;
74044;SDS011;62389;51.412;5.436;2023-01-05T17:24:47;18.50;;;6.55;;
74044;SDS011;62389;51.412;5.436;2023-01-05T17:27:13;20.20;;;6.60;;
74044;SDS011;62389;51.412;5.436;2023-01-05T17:29:38;21.77;;;6.68;;
74044;SDS011;62389;51.412;5.436;2023-01-05T17:32:03;20.48;;;7.18;;
74044;SDS011;62389;51.412;5.436;2023-01-05T17:34:29;22.95;;;7.40;;
74044;SDS011;62389;51.412;5.436;2023-01-05T17:36:57;21.23;;;8.07;;
74044;SDS011;62389;51.412;5.436;2023-01-05T17:39:24;16.08;;;7.95;;
74044;SDS011;62389;51.412;5.436;2023-01-05T17:41:50;18.48;;;7.00;;
74044;SDS011;62389;51.412;5.436;2023-01-05T17:44:15;16.92;;;7.97;;
74044;SDS011;62389;51.412;5.436;2023-01-05T17:46:41;17.27;;;7.38;;
74044;SDS011;62389;51.412;5.436;2023-01-05T17:49:12;17.63;;;7.93;;
74044;SDS011;62389;51.412;5.436;2023-01-05T17:51:39;29.08;;;9.15;;
74044;SDS011;62389;51.412;5.436;2023-01-05T17:54:05;20.08;;;8.90;;